Aeroporto :
LOGIN :

Iscrizione | Disclaimer

   EN    FR    IT 

 










Sommario :    VFR   VFR Marginale   IFR   IFR Intensivo   IFR Molto Intensivo
Visibilità : 
Base nubi : 
>= 8 km
>= 3000ft
5 / 8 km
1000 / 3000 ft
1500m / 5 km
500 / 1000 ft
800 / 1500m
200 / 500 ft
< 800m
< 200 ft
Simboli :   Temporali  Nebbia  Neve Forte  Precipitazioni Forti  Vento > 20 kt
SIGMETs :   Varie  Temporali  Ghiacco  Turbolenza  Onda orograficha  Ceneri Vulcaniche






- Altitudine del aeroporto : 162 ft
- Codice IATA : BOD


LFBD - Bordeaux / Merignac

ULTIMO METAR :
  • 211530Z AUTO 07004KT 360V130 CAVOK 13/03 Q1032 NOSIG

METARs OBSOLETI :
  • 211500Z AUTO 03006KT 360V070 CAVOK 13/03 Q1032 NOSIG
  • 211430Z AUTO 05006KT 020V090 CAVOK 13/03 Q1032 NOSIG
  • 211400Z AUTO VRB03KT CAVOK 13/03 Q1032 NOSIG
  • 211330Z AUTO VRB04KT CAVOK 13/02 Q1032 NOSIG
  • 211300Z AUTO VRB03KT CAVOK 13/03 Q1033 NOSIG

TAF TAF LFBD
Valido dal 21 a 12 ore il 22 a 18 ore UTC


211100Z 2112/2218 VRB03KT CAVOK TX15/2214Z TN03/2206Z
PROB40 2200/2208 2000 MIFG
ATIS : +33 5 57 92 81 04



MetMap, La meteo Aeronautica in un colpo d'occhio ! - Copyright ORBIFLY Dicembre 2007 - Disclaimer

ORBIFLY MET'MAP TEAM :

Programmazione e sviluppo : Alexandra Zaïnal
Concezione : Baudouin d'Aumeries
Aiuto per la programmazione : Marc-Olivier Méhu
Supporto tecnico e logistico : Manuel Goepfert
Aiuto per la traduzione : Arnaldo La Scala

Contatto : metmap@orbifly.com




FONTI E CREDITI :

   NOAA